createdAt,value
2018-12-03T00:01:59.550Z,94.20
2018-12-03T00:04:41.345Z,94.80
2018-12-03T00:07:23.110Z,94.40
2018-12-03T00:10:04.628Z,94.90
2018-12-03T00:12:46.420Z,94.60
2018-12-03T00:15:27.902Z,94.50
2018-12-03T00:18:09.503Z,94.80
2018-12-03T00:20:51.387Z,95.30
2018-12-03T00:23:32.872Z,95.50
2018-12-03T00:26:14.566Z,95.20
2018-12-03T00:28:56.176Z,95.30
2018-12-03T00:31:37.744Z,95.20
2018-12-03T00:34:19.337Z,95.40
2018-12-03T00:37:00.920Z,95.60
2018-12-03T00:39:42.714Z,96.00
2018-12-03T00:42:24.404Z,96.20
2018-12-03T00:45:05.932Z,96.10
2018-12-03T00:47:47.270Z,96.50
2018-12-03T00:50:29.170Z,96.00
2018-12-03T00:53:10.760Z,96.10
2018-12-03T00:55:52.466Z,96.00
2018-12-03T00:58:34.154Z,96.00
2018-12-03T01:01:15.831Z,96.00
2018-12-03T01:03:57.746Z,95.50
2018-12-03T01:06:39.026Z,95.20
2018-12-03T01:09:20.700Z,95.10
2018-12-03T01:12:02.809Z,94.80
2018-12-03T01:14:44.193Z,94.80
2018-12-03T01:17:25.593Z,94.90
2018-12-03T01:20:07.362Z,94.90
2018-12-03T01:22:49.161Z,95.10
2018-12-03T01:25:30.785Z,95.10
2018-12-03T01:28:13.053Z,95.00
2018-12-03T01:30:54.230Z,94.90
2018-12-03T01:33:36.527Z,94.40
2018-12-03T01:36:18.533Z,94.20
2018-12-03T01:39:00.022Z,94.20
2018-12-03T01:41:41.604Z,94.20
2018-12-03T01:44:23.200Z,93.80
2018-12-03T01:47:04.990Z,93.70
2018-12-03T01:49:46.481Z,93.80
2018-12-03T01:52:27.968Z,93.90
2018-12-03T01:55:09.465Z,93.90
2018-12-03T01:57:51.160Z,94.30
2018-12-03T02:00:32.249Z,94.80
2018-12-03T02:03:14.011Z,94.90
2018-12-03T02:05:55.805Z,95.00
2018-12-03T02:08:37.194Z,95.00
2018-12-03T02:11:18.776Z,95.10
2018-12-03T02:14:00.367Z,95.20
2018-12-03T02:16:41.873Z,95.30
2018-12-03T02:19:23.645Z,95.40
2018-12-03T02:22:05.339Z,95.50
2018-12-03T02:24:46.927Z,95.60
2018-12-03T02:27:28.653Z,95.60
2018-12-03T02:30:10.206Z,95.50
2018-12-03T02:32:51.789Z,95.60
2018-12-03T02:35:33.895Z,95.50
2018-12-03T02:38:14.894Z,95.50
2018-12-03T02:40:57.211Z,95.50
2018-12-03T02:43:38.353Z,95.30
2018-12-03T02:46:20.453Z,95.20
2018-12-03T02:49:02.497Z,95.20
2018-12-03T02:51:43.739Z,95.00
2018-12-03T02:54:25.542Z,95.40
2018-12-03T02:57:07.167Z,95.10
2018-12-03T02:59:48.505Z,95.00
2018-12-03T03:02:30.397Z,94.80
2018-12-03T03:05:12.109Z,94.70
2018-12-03T03:07:54.148Z,94.80
2018-12-03T03:10:35.188Z,94.80
2018-12-03T03:13:16.955Z,95.00
2018-12-03T03:15:58.446Z,94.90
2018-12-03T03:18:40.137Z,94.90
2018-12-03T03:21:22.132Z,95.00
2018-12-03T03:24:03.652Z,95.10
2018-12-03T03:26:44.596Z,95.00
2018-12-03T03:29:26.384Z,95.00
2018-12-03T03:32:08.282Z,95.50
2018-12-03T03:34:49.985Z,95.10
2018-12-03T03:37:31.971Z,95.40
2018-12-03T03:40:13.453Z,95.30
2018-12-03T03:42:55.047Z,95.40
2018-12-03T03:45:37.058Z,95.50
2018-12-03T03:48:18.325Z,95.60
2018-12-03T03:50:59.946Z,95.70
2018-12-03T03:53:41.405Z,95.70
2018-12-03T03:56:22.376Z,95.60
2018-12-03T03:59:03.866Z,95.60
2018-12-03T04:01:45.450Z,95.60
2018-12-03T04:04:26.322Z,95.70
2018-12-03T04:07:08.015Z,95.90
2018-12-03T04:09:49.601Z,96.00
2018-12-03T04:12:30.882Z,96.30
2018-12-03T04:15:12.675Z,96.30
2018-12-03T04:17:54.370Z,96.50
2018-12-03T04:20:35.849Z,96.70
2018-12-03T04:23:17.572Z,96.80
2018-12-03T04:25:59.899Z,96.90
2018-12-03T04:28:40.926Z,97.00
2018-12-03T04:31:22.552Z,96.80
2018-12-03T04:34:04.423Z,97.20
2018-12-03T04:36:46.103Z,97.40
2018-12-03T04:39:27.080Z,97.40
2018-12-03T04:42:09.523Z,97.60
2018-12-03T04:44:50.673Z,97.70
2018-12-03T04:47:32.212Z,98.10
2018-12-03T04:50:14.047Z,98.30
2018-12-03T04:52:55.841Z,98.30
2018-12-03T04:55:37.430Z,98.60
2018-12-03T04:58:19.334Z,98.30
2018-12-03T05:01:01.119Z,98.40
2018-12-03T05:03:42.406Z,98.60
2018-12-03T05:06:24.195Z,98.40
2018-12-03T05:09:05.790Z,98.50
2018-12-03T05:11:47.602Z,98.20
2018-12-03T05:14:29.680Z,98.50
2018-12-03T05:17:11.084Z,98.70
2018-12-03T05:19:53.264Z,98.80
2018-12-03T05:22:34.754Z,98.90
2018-12-03T05:25:19.126Z,99.00
2018-12-03T05:27:57.932Z,98.90
2018-12-03T05:30:39.416Z,99.10
2018-12-03T05:33:21.148Z,99.00
2018-12-03T05:36:02.898Z,99.20
2018-12-03T05:38:45.002Z,99.40
2018-12-03T05:41:26.183Z,99.20
2018-12-03T05:44:08.080Z,99.60
2018-12-03T05:46:49.576Z,99.50
2018-12-03T05:49:31.355Z,99.60
2018-12-03T05:52:13.153Z,99.50
2018-12-03T05:54:54.765Z,99.80
2018-12-03T05:57:36.133Z,99.90
2018-12-03T06:00:18.324Z,99.40
2018-12-03T06:03:00.423Z,98.60
2018-12-03T06:05:41.282Z,97.90
2018-12-03T06:08:22.986Z,96.80
2018-12-03T06:11:03.962Z,96.10
2018-12-03T06:13:45.354Z,95.30
2018-12-03T06:16:26.833Z,94.90
2018-12-03T06:19:08.526Z,94.30
2018-12-03T06:21:54.026Z,93.30
2018-12-03T06:24:35.184Z,93.00
2018-12-03T06:27:16.874Z,92.60
2018-12-03T06:29:58.610Z,92.40
2018-12-03T06:32:40.313Z,92.30
2018-12-03T06:35:22.054Z,92.20
2018-12-03T06:38:03.541Z,92.30
2018-12-03T06:40:45.230Z,92.30
2018-12-03T06:43:27.022Z,92.20
2018-12-03T06:46:08.612Z,92.20
2018-12-03T06:48:50.241Z,92.10
2018-12-03T06:51:31.891Z,91.90
2018-12-03T06:54:13.316Z,91.90
2018-12-03T06:56:55.580Z,91.90
2018-12-03T06:59:37.169Z,91.90
2018-12-03T07:02:18.377Z,91.60
2018-12-03T07:04:59.956Z,91.90
2018-12-03T07:07:40.911Z,92.00
2018-12-03T07:10:23.013Z,92.00
2018-12-03T07:13:04.291Z,91.90
2018-12-03T07:15:45.923Z,91.80
2018-12-03T07:18:27.486Z,91.70
2018-12-03T07:21:08.545Z,91.70
2018-12-03T07:23:50.236Z,91.70
2018-12-03T07:26:31.538Z,91.30
2018-12-03T07:29:13.214Z,91.00
2018-12-03T07:31:54.185Z,90.30
2018-12-03T07:34:36.081Z,87.60
2018-12-03T07:37:17.875Z,86.10
2018-12-03T07:39:59.259Z,84.80
2018-12-03T07:42:41.247Z,81.20
2018-12-03T07:45:23.050Z,78.60
2018-12-03T07:48:04.234Z,76.80
2018-12-03T07:50:45.688Z,75.30
2018-12-03T07:53:27.509Z,73.00
2018-12-03T07:56:09.028Z,71.90
2018-12-03T07:58:50.694Z,68.90
2018-12-03T08:01:32.286Z,66.20
2018-12-03T08:04:13.864Z,66.00
2018-12-03T08:06:55.356Z,64.80
2018-12-03T08:09:37.250Z,63.40
2018-12-03T08:12:18.822Z,62.60
2018-12-03T08:15:01.769Z,63.60
2018-12-03T08:17:43.154Z,63.60
2018-12-03T08:20:24.628Z,62.80
2018-12-03T08:23:06.243Z,63.30
2018-12-03T08:25:48.007Z,65.90
2018-12-03T08:28:29.492Z,67.10
2018-12-03T08:31:11.492Z,68.40
2018-12-03T08:33:52.670Z,69.80
2018-12-03T08:36:34.157Z,71.20
2018-12-03T08:39:15.602Z,71.30
2018-12-03T08:41:58.051Z,71.50
2018-12-03T08:44:40.063Z,72.20
2018-12-03T08:47:21.983Z,71.50
2018-12-03T08:50:03.329Z,72.30
2018-12-03T08:52:45.540Z,72.30
2018-12-03T08:55:27.429Z,72.00
2018-12-03T08:58:09.569Z,70.60
2018-12-03T09:00:50.503Z,71.60
2018-12-03T09:03:32.110Z,72.30
2018-12-03T09:06:14.111Z,73.00
2018-12-03T09:08:55.373Z,74.50
2018-12-03T09:11:36.674Z,74.70
2018-12-03T09:14:18.344Z,74.70
2018-12-03T09:17:02.416Z,73.20
2018-12-03T09:19:41.026Z,69.90
2018-12-03T09:22:22.804Z,66.40
2018-12-03T09:25:04.392Z,65.60
2018-12-03T09:27:46.083Z,64.60
2018-12-03T09:30:27.976Z,64.10
2018-12-03T09:33:09.158Z,61.80
2018-12-03T09:35:50.545Z,59.00
2018-12-03T09:38:32.263Z,57.50
2018-12-03T09:41:13.924Z,56.10
2018-12-03T09:43:55.618Z,56.10
2018-12-03T09:46:37.138Z,57.80
2018-12-03T09:49:18.738Z,59.70
2018-12-03T09:52:00.301Z,63.50
2018-12-03T09:54:41.872Z,65.20
2018-12-03T09:57:23.664Z,66.70
2018-12-03T10:00:05.557Z,67.50
2018-12-03T10:02:47.863Z,69.40
2018-12-03T10:05:29.564Z,70.60
2018-12-03T10:08:11.069Z,71.80
2018-12-03T10:10:52.630Z,72.80
2018-12-03T10:13:34.265Z,73.90
2018-12-03T10:16:16.937Z,73.10
2018-12-03T10:19:00.457Z,73.10
2018-12-03T10:21:40.273Z,72.40
2018-12-03T10:24:21.803Z,66.30
2018-12-03T10:27:03.185Z,63.80
2018-12-03T10:29:44.672Z,61.80
2018-12-03T10:32:26.369Z,64.00
2018-12-03T10:35:07.965Z,64.00
2018-12-03T10:37:50.117Z,65.50
2018-12-03T10:40:31.865Z,64.10
2018-12-03T10:43:13.589Z,64.60
2018-12-03T10:45:55.150Z,66.50
2018-12-03T10:48:36.348Z,66.50
2018-12-03T10:51:17.995Z,66.30
2018-12-03T10:53:59.686Z,67.20
2018-12-03T10:56:41.586Z,65.90
2018-12-03T10:59:23.300Z,63.30
2018-12-03T11:02:09.881Z,62.50
2018-12-03T11:04:56.595Z,60.20
2018-12-03T11:07:38.281Z,60.50
2018-12-03T11:10:20.075Z,60.70
2018-12-03T11:13:02.306Z,61.10
2018-12-03T11:15:43.457Z,61.40
2018-12-03T11:18:25.559Z,62.90
2018-12-03T11:21:11.068Z,64.40
2018-12-03T11:23:53.960Z,64.60
2018-12-03T11:26:35.155Z,65.00
2018-12-03T11:29:16.930Z,66.20
2018-12-03T11:31:58.656Z,66.10
2018-12-03T11:34:40.311Z,66.70
2018-12-03T11:37:21.904Z,65.90
2018-12-03T11:40:03.696Z,64.90
2018-12-03T11:42:45.214Z,63.30
2018-12-03T11:45:27.487Z,63.00
2018-12-03T11:48:08.465Z,63.20
2018-12-03T11:50:50.889Z,63.60
2018-12-03T11:53:33.200Z,62.20
2018-12-03T11:56:14.864Z,62.00
2018-12-03T11:58:56.531Z,62.10
2018-12-03T12:01:38.615Z,62.20
2018-12-03T12:04:20.559Z,62.80
2018-12-03T12:07:01.635Z,63.00
2018-12-03T12:09:43.380Z,63.60
2018-12-03T12:12:24.922Z,62.10
2018-12-03T12:15:06.291Z,62.80
2018-12-03T12:17:47.983Z,63.10
2018-12-03T12:20:30.052Z,63.60
2018-12-03T12:23:11.570Z,63.40
2018-12-03T12:25:53.279Z,64.70
2018-12-03T12:28:38.251Z,62.60
2018-12-03T12:31:16.595Z,62.70
2018-12-03T12:33:57.926Z,63.10
2018-12-03T12:36:39.207Z,63.10
2018-12-03T12:39:20.795Z,61.80
2018-12-03T12:42:02.385Z,61.60
2018-12-03T12:44:43.984Z,62.30
2018-12-03T12:47:25.684Z,61.80
2018-12-03T12:50:07.816Z,62.00
2018-12-03T12:52:49.417Z,59.30
2018-12-03T12:55:30.766Z,58.10
2018-12-03T12:58:12.530Z,55.80
2018-12-03T13:00:54.437Z,54.40
2018-12-03T13:03:35.897Z,53.30
2018-12-03T13:06:17.915Z,52.90
2018-12-03T13:08:59.617Z,54.10
2018-12-03T13:11:40.768Z,55.60
2018-12-03T13:14:21.548Z,56.20
2018-12-03T13:17:03.445Z,58.30
2018-12-03T13:19:44.949Z,59.50
2018-12-03T13:22:30.299Z,60.10
2018-12-03T13:25:08.522Z,62.10
2018-12-03T13:27:50.038Z,63.30
2018-12-03T13:30:30.879Z,64.90
2018-12-03T13:33:11.851Z,65.60
2018-12-03T13:35:53.250Z,65.90
2018-12-03T13:38:34.209Z,68.00
2018-12-03T13:41:15.798Z,67.90
2018-12-03T13:43:57.491Z,68.10
2018-12-03T13:46:39.079Z,69.20
2018-12-03T13:49:20.225Z,68.80
2018-12-03T13:52:02.330Z,69.90
2018-12-03T13:54:43.474Z,70.30
2018-12-03T13:57:25.365Z,70.10
2018-12-03T14:00:07.229Z,69.80
2018-12-03T14:02:48.316Z,70.20
2018-12-03T14:05:29.995Z,69.90
2018-12-03T14:08:12.096Z,70.20
2018-12-03T14:11:46.932Z,71.30
2018-12-03T14:14:28.419Z,71.40
2018-12-03T14:17:10.621Z,71.00
2018-12-03T14:19:52.110Z,70.40
2018-12-03T14:22:34.006Z,70.20
2018-12-03T14:25:15.553Z,70.40
2018-12-03T14:27:57.283Z,71.50
2018-12-03T14:30:39.180Z,71.60
2018-12-03T14:33:20.045Z,71.80
2018-12-03T14:36:01.696Z,72.60
2018-12-03T14:38:43.433Z,73.10
2018-12-03T14:41:25.524Z,73.70
2018-12-03T14:44:07.021Z,73.70
2018-12-03T14:46:47.901Z,74.20
2018-12-03T14:49:29.789Z,74.60
2018-12-03T14:52:11.488Z,75.10
2018-12-03T14:54:53.000Z,75.30
2018-12-03T14:57:34.558Z,75.20
2018-12-03T15:00:16.347Z,75.90
2018-12-03T15:02:58.200Z,76.80
2018-12-03T15:05:40.187Z,77.20
2018-12-03T15:08:21.012Z,78.40
2018-12-03T15:11:03.192Z,78.10
2018-12-03T15:13:44.704Z,79.00
2018-12-03T15:16:26.288Z,80.10
2018-12-03T15:19:11.567Z,80.20
2018-12-03T15:21:51.515Z,80.10
2018-12-03T15:24:33.107Z,81.00
2018-12-03T15:27:14.690Z,81.70
2018-12-03T15:29:56.592Z,80.70
2018-12-03T15:32:38.322Z,80.70
2018-12-03T15:35:19.668Z,80.50
2018-12-03T15:38:01.156Z,80.60
2018-12-03T15:40:43.047Z,81.40
2018-12-03T15:43:25.147Z,82.00
2018-12-03T15:46:06.224Z,82.70
2018-12-03T15:48:47.931Z,82.90
2018-12-03T15:51:29.958Z,83.00
2018-12-03T15:54:11.914Z,83.90
2018-12-03T15:56:52.988Z,84.00
2018-12-03T15:59:34.888Z,85.10
2018-12-03T16:02:16.372Z,85.60
2018-12-03T16:04:57.978Z,86.40
2018-12-03T16:07:40.481Z,87.20
2018-12-03T16:10:22.203Z,87.30
2018-12-03T16:13:03.357Z,87.90
2018-12-03T16:15:45.239Z,88.30
2018-12-03T16:18:26.824Z,88.60
2018-12-03T16:21:08.413Z,88.70
2018-12-03T16:23:50.822Z,89.00
2018-12-03T16:26:32.514Z,89.60
2018-12-03T16:29:14.634Z,89.60
2018-12-03T16:31:55.894Z,89.80
2018-12-03T16:34:37.354Z,90.10
2018-12-03T16:37:18.458Z,90.30
2018-12-03T16:40:00.354Z,90.50
2018-12-03T16:42:42.454Z,90.50
2018-12-03T16:45:23.939Z,90.60
2018-12-03T16:48:05.374Z,90.70
2018-12-03T16:50:46.401Z,90.80
2018-12-03T16:53:28.036Z,90.90
2018-12-03T16:56:09.578Z,90.90
2018-12-03T16:58:51.372Z,90.80
2018-12-03T17:01:32.564Z,91.00
2018-12-03T17:04:14.408Z,91.00
2018-12-03T17:06:56.088Z,91.00
2018-12-03T17:09:37.789Z,90.70
2018-12-03T17:12:19.417Z,90.40
2018-12-03T17:15:01.005Z,90.40
2018-12-03T17:17:42.844Z,89.80
2018-12-03T17:20:24.303Z,89.60
2018-12-03T17:23:06.078Z,89.10
2018-12-03T17:25:47.872Z,88.30
2018-12-03T17:28:29.459Z,88.00
2018-12-03T17:31:11.054Z,88.10
2018-12-03T17:33:52.784Z,87.80
2018-12-03T17:36:34.127Z,87.40
2018-12-03T17:39:15.630Z,87.10
2018-12-03T17:41:57.308Z,87.00
2018-12-03T17:44:38.708Z,86.60
2018-12-03T17:47:19.582Z,86.40
2018-12-03T17:50:01.352Z,86.60
2018-12-03T17:52:43.559Z,86.20
2018-12-03T17:55:24.836Z,85.70
2018-12-03T17:58:07.248Z,85.70
2018-12-03T18:00:48.327Z,85.30
2018-12-03T18:03:30.155Z,85.10
2018-12-03T18:06:16.942Z,85.20
2018-12-03T18:08:55.049Z,85.40
2018-12-03T18:11:36.825Z,85.20
2018-12-03T18:14:18.547Z,85.40
2018-12-03T18:17:00.310Z,85.60
2018-12-03T18:19:41.843Z,85.70
2018-12-03T18:22:23.795Z,85.70
2018-12-03T18:25:05.502Z,85.70
2018-12-03T18:27:47.179Z,85.50
2018-12-03T18:30:28.811Z,85.50
2018-12-03T18:33:10.595Z,85.20
2018-12-03T18:35:52.256Z,85.60
2018-12-03T18:38:33.635Z,85.00
2018-12-03T18:41:15.326Z,85.10
2018-12-03T18:43:56.935Z,85.40
2018-12-03T18:46:38.606Z,85.00
2018-12-03T18:49:20.107Z,85.50
2018-12-03T18:52:01.682Z,85.70
2018-12-03T18:54:43.487Z,85.70
2018-12-03T18:57:25.186Z,85.50
2018-12-03T19:00:06.141Z,85.20
2018-12-03T19:02:47.933Z,85.50
2018-12-03T19:05:29.727Z,85.70
2018-12-03T19:08:10.915Z,86.50
2018-12-03T19:10:52.906Z,85.80
2018-12-03T19:13:35.265Z,85.90
2018-12-03T19:16:17.126Z,86.00
2018-12-03T19:18:58.695Z,85.80
2018-12-03T19:21:40.387Z,87.40
2018-12-03T19:24:22.282Z,86.30
2018-12-03T19:27:03.672Z,86.70
2018-12-03T19:29:44.850Z,87.10
2018-12-03T19:32:27.077Z,87.60
2018-12-03T19:35:07.941Z,87.40
2018-12-03T19:37:50.408Z,87.30
2018-12-03T19:40:32.121Z,88.20
2018-12-03T19:43:13.814Z,87.70
2018-12-03T19:45:55.345Z,87.90
2018-12-03T19:48:37.196Z,88.50
2018-12-03T19:51:18.563Z,88.70
2018-12-03T19:54:00.372Z,89.00
2018-12-03T19:56:42.472Z,89.10
2018-12-03T19:59:23.552Z,89.70
2018-12-03T20:02:05.343Z,90.00
2018-12-03T20:04:52.460Z,90.10
2018-12-03T20:07:33.646Z,90.20
2018-12-03T20:10:15.332Z,90.50
2018-12-03T20:12:56.817Z,90.60
2018-12-03T20:15:38.438Z,90.80
2018-12-03T20:18:20.303Z,91.10
2018-12-03T20:21:02.955Z,91.30
2018-12-03T20:23:45.102Z,91.50
2018-12-03T20:26:26.095Z,91.60
2018-12-03T20:29:07.884Z,91.90
2018-12-03T20:31:49.501Z,92.10
2018-12-03T20:34:31.657Z,92.20
2018-12-03T20:37:12.958Z,92.50
2018-12-03T20:39:54.550Z,92.30
2018-12-03T20:42:37.293Z,92.50
2018-12-03T20:45:18.689Z,92.60
2018-12-03T20:47:59.928Z,92.80
2018-12-03T20:50:43.639Z,92.80
2018-12-03T20:53:26.871Z,93.00
2018-12-03T20:56:07.664Z,93.00
2018-12-03T20:58:49.598Z,93.10
2018-12-03T21:01:32.503Z,93.10
2018-12-03T21:04:13.760Z,93.20
2018-12-03T21:06:55.495Z,93.20
2018-12-03T21:09:37.282Z,93.20
2018-12-03T21:12:20.370Z,93.10
2018-12-03T21:15:01.861Z,93.20
2018-12-03T21:17:44.265Z,93.20
2018-12-03T21:20:26.449Z,93.30
2018-12-03T21:23:09.112Z,93.30
2018-12-03T21:25:50.676Z,93.30
2018-12-03T21:28:32.257Z,93.60
2018-12-03T21:31:13.952Z,93.70
2018-12-03T21:33:55.537Z,93.90
2018-12-03T21:36:38.269Z,93.70
2018-12-03T21:39:19.741Z,93.90
2018-12-03T21:42:02.147Z,94.00
2018-12-03T21:44:43.621Z,94.20
2018-12-03T21:47:25.120Z,94.30
2018-12-03T21:50:07.298Z,94.40
2018-12-03T21:52:48.347Z,94.50
2018-12-03T21:55:31.270Z,94.50
2018-12-03T21:58:14.034Z,94.60
2018-12-03T22:00:55.418Z,94.70
2018-12-03T22:03:38.442Z,94.60
2018-12-03T22:06:20.015Z,94.40
2018-12-03T22:09:01.764Z,94.00
2018-12-03T22:11:43.521Z,93.80
2018-12-03T22:14:24.903Z,93.30
2018-12-03T22:17:06.385Z,92.90
2018-12-03T22:19:49.033Z,92.40
2018-12-03T22:22:30.586Z,92.00
2018-12-03T22:25:12.470Z,91.30
2018-12-03T22:27:54.992Z,91.10
2018-12-03T22:30:36.593Z,90.60
2018-12-03T22:33:18.108Z,90.60
2018-12-03T22:35:59.654Z,90.40
2018-12-03T22:38:41.346Z,90.10
2018-12-03T22:41:23.243Z,90.20
2018-12-03T22:44:04.779Z,90.20
2018-12-03T22:46:46.432Z,90.10
2018-12-03T22:49:28.215Z,89.70
2018-12-03T22:52:09.702Z,88.80
2018-12-03T22:54:51.393Z,89.30
2018-12-03T22:57:32.931Z,89.60
2018-12-03T23:00:18.561Z,90.30
2018-12-03T23:03:00.965Z,90.80
2018-12-03T23:05:42.150Z,91.20
2018-12-03T23:08:23.539Z,91.40
2018-12-03T23:11:05.231Z,91.50
2018-12-03T23:13:46.916Z,91.90
2018-12-03T23:16:28.609Z,92.20
2018-12-03T23:19:10.092Z,92.30
2018-12-03T23:21:51.783Z,92.50
2018-12-03T23:24:33.624Z,92.50
2018-12-03T23:27:15.200Z,93.00
2018-12-03T23:29:56.871Z,93.40
2018-12-03T23:32:39.774Z,93.60
2018-12-03T23:35:20.968Z,93.80
2018-12-03T23:38:03.464Z,94.00
2018-12-03T23:40:44.539Z,94.20
2018-12-03T23:43:26.524Z,94.20
2018-12-03T23:46:08.138Z,94.40
2018-12-03T23:48:49.411Z,94.60
2018-12-03T23:51:36.022Z,94.80
2018-12-03T23:54:15.046Z,94.90
2018-12-03T23:56:56.741Z,95.10
2018-12-03T23:59:38.374Z,94.90
